createdAt,value
2023-04-08T00:00:07.496Z,99.90
2023-04-08T00:02:37.208Z,99.90
2023-04-08T00:05:09.980Z,99.90
2023-04-08T00:07:38.665Z,99.90
2023-04-08T00:10:08.036Z,99.90
2023-04-08T00:12:36.169Z,99.90
2023-04-08T00:15:04.214Z,99.90
2023-04-08T00:17:32.157Z,99.90
2023-04-08T00:20:01.563Z,99.90
2023-04-08T00:22:29.508Z,99.90
2023-04-08T00:24:58.680Z,99.90
2023-04-08T00:27:26.646Z,99.90
2023-04-08T00:29:54.626Z,99.90
2023-04-08T00:32:27.554Z,99.90
2023-04-08T00:34:55.748Z,99.90
2023-04-08T00:37:25.758Z,99.90
2023-04-08T00:39:54.190Z,99.90
2023-04-08T00:42:22.187Z,99.90
2023-04-08T00:44:50.350Z,99.90
2023-04-08T00:47:18.492Z,99.90
2023-04-08T00:49:46.673Z,99.90
2023-04-08T00:52:14.862Z,99.90
2023-04-08T00:54:44.527Z,99.90
2023-04-08T00:57:12.570Z,99.90
2023-04-08T00:59:40.896Z,99.90
2023-04-08T01:02:16.512Z,99.90
2023-04-08T01:04:54.393Z,99.90
2023-04-08T01:07:27.051Z,99.90
2023-04-08T01:10:00.170Z,99.90
2023-04-08T01:12:30.677Z,99.90
2023-04-08T01:15:03.252Z,99.90
2023-04-08T01:17:32.428Z,99.90
2023-04-08T01:20:03.824Z,99.90
2023-04-08T01:22:45.024Z,99.90
2023-04-08T01:25:19.960Z,99.90
2023-04-08T01:27:51.512Z,99.90
2023-04-08T01:30:21.999Z,99.90
2023-04-08T01:32:52.141Z,99.90
2023-04-08T01:35:20.414Z,99.90
2023-04-08T01:37:49.915Z,99.90
2023-04-08T01:40:19.557Z,99.90
2023-04-08T01:42:51.695Z,99.90
2023-04-08T01:45:20.138Z,99.90
2023-04-08T01:47:49.219Z,99.90
2023-04-08T01:50:18.142Z,99.90
2023-04-08T01:52:49.094Z,99.90
2023-04-08T01:55:18.126Z,99.90
2023-04-08T01:57:50.768Z,99.90
2023-04-08T02:00:23.795Z,99.90
2023-04-08T02:02:52.884Z,99.90
2023-04-08T02:05:21.298Z,99.90
2023-04-08T02:07:49.510Z,99.90
2023-04-08T02:10:17.513Z,99.90
2023-04-08T02:12:45.818Z,99.90
2023-04-08T02:15:14.944Z,99.90
2023-04-08T02:17:47.577Z,99.90
2023-04-08T02:20:20.787Z,99.90
2023-04-08T02:22:53.464Z,99.90
2023-04-08T02:25:25.216Z,99.90
2023-04-08T02:28:05.019Z,99.90
2023-04-08T02:30:35.522Z,99.90
2023-04-08T02:33:06.873Z,99.90
2023-04-08T02:35:35.879Z,99.90
2023-04-08T02:38:04.003Z,99.90
2023-04-08T02:40:33.651Z,99.90
2023-04-08T02:43:02.019Z,99.90
2023-04-08T02:45:33.111Z,99.90
2023-04-08T02:48:05.121Z,99.90
2023-04-08T02:50:33.377Z,99.90
2023-04-08T02:53:01.416Z,99.90
2023-04-08T02:55:29.390Z,99.90
2023-04-08T02:57:57.376Z,99.90
2023-04-08T03:00:27.720Z,99.90
2023-04-08T03:02:56.533Z,99.90
2023-04-08T03:05:28.217Z,99.90
2023-04-08T03:07:56.244Z,99.90
2023-04-08T03:10:24.259Z,99.90
2023-04-08T03:12:52.357Z,99.90
2023-04-08T03:15:20.490Z,99.90
2023-04-08T03:17:48.500Z,99.90
2023-04-08T03:20:16.590Z,99.90
2023-04-08T03:22:46.003Z,99.90
2023-04-08T03:25:14.005Z,99.90
2023-04-08T03:27:42.037Z,99.90
2023-04-08T03:30:10.423Z,99.90
2023-04-08T03:32:38.522Z,99.90
2023-04-08T03:35:07.294Z,99.90
2023-04-08T03:37:35.275Z,99.90
2023-04-08T03:40:04.784Z,99.90
2023-04-08T03:42:33.644Z,99.90
2023-04-08T03:45:01.641Z,99.90
2023-04-08T03:47:29.661Z,99.90
2023-04-08T03:49:57.658Z,99.90
2023-04-08T03:52:29.610Z,99.90
2023-04-08T03:54:57.613Z,99.90
2023-04-08T03:57:26.974Z,99.90
2023-04-08T03:59:55.454Z,99.90
2023-04-08T04:02:23.660Z,99.90
2023-04-08T04:04:51.874Z,99.90
2023-04-08T04:07:20.008Z,99.90
2023-04-08T04:09:47.963Z,99.90
2023-04-08T04:12:16.198Z,99.90
2023-04-08T04:14:45.503Z,99.90
2023-04-08T04:17:13.531Z,99.90
2023-04-08T04:19:42.255Z,99.90
2023-04-08T04:22:10.233Z,99.90
2023-04-08T04:24:38.443Z,99.90
2023-04-08T04:27:06.665Z,99.90
2023-04-08T04:29:34.644Z,99.90
2023-04-08T04:32:04.100Z,99.90
2023-04-08T04:34:32.045Z,99.90
2023-04-08T04:37:00.043Z,99.90
2023-04-08T04:39:28.062Z,99.90
2023-04-08T04:41:56.018Z,99.90
2023-04-08T04:44:24.067Z,99.90
2023-04-08T04:46:52.081Z,99.90
2023-04-08T04:49:21.532Z,99.90
2023-04-08T04:51:51.857Z,99.90
2023-04-08T04:54:20.036Z,99.90
2023-04-08T04:56:48.093Z,99.90
2023-04-08T04:59:16.260Z,99.90
2023-04-08T05:01:44.297Z,99.90
2023-04-08T05:04:12.341Z,99.90
2023-04-08T05:06:41.658Z,99.90
2023-04-08T05:09:09.676Z,99.90
2023-04-08T05:11:37.892Z,99.90
2023-04-08T05:14:06.897Z,99.90
2023-04-08T05:16:36.615Z,99.90
2023-04-08T05:19:04.600Z,99.90
2023-04-08T05:21:33.160Z,99.90
2023-04-08T05:24:02.795Z,99.90
2023-04-08T05:26:30.910Z,99.90
2023-04-08T05:28:58.870Z,99.90
2023-04-08T05:31:27.102Z,99.90
2023-04-08T05:33:55.101Z,99.90
2023-04-08T05:36:23.081Z,99.90
2023-04-08T05:38:51.544Z,99.90
2023-04-08T05:41:25.294Z,99.90
2023-04-08T05:43:53.267Z,99.90
2023-04-08T05:46:21.260Z,99.90
2023-04-08T05:48:49.459Z,99.90
2023-04-08T05:51:18.434Z,99.90
2023-04-08T05:53:47.527Z,99.90
2023-04-08T05:56:16.219Z,99.90
2023-04-08T05:58:45.612Z,99.90
2023-04-08T06:01:13.730Z,99.90
2023-04-08T06:03:41.897Z,99.90
2023-04-08T06:06:12.374Z,99.90
2023-04-08T06:08:40.464Z,99.90
2023-04-08T06:11:08.940Z,99.90
2023-04-08T06:13:38.010Z,99.90
2023-04-08T06:16:14.842Z,99.90
2023-04-08T06:18:45.317Z,99.90
2023-04-08T06:21:13.290Z,99.90
2023-04-08T06:23:41.382Z,99.90
2023-04-08T06:26:09.634Z,99.90
2023-04-08T06:28:37.635Z,99.90
2023-04-08T06:31:07.301Z,99.90
2023-04-08T06:33:36.975Z,99.90
2023-04-08T06:36:05.231Z,99.90
2023-04-08T06:38:33.842Z,99.90
2023-04-08T06:41:06.407Z,99.90
2023-04-08T06:43:35.490Z,99.90
2023-04-08T06:46:03.864Z,99.90
2023-04-08T06:48:31.938Z,99.90
2023-04-08T06:51:02.408Z,99.90
2023-04-08T06:53:31.219Z,99.90
2023-04-08T06:55:59.205Z,99.90
2023-04-08T06:58:27.343Z,99.90
2023-04-08T07:00:56.260Z,99.90
2023-04-08T07:03:25.937Z,99.90
2023-04-08T07:05:54.099Z,99.90
2023-04-08T07:08:25.852Z,99.90
2023-04-08T07:10:53.940Z,99.90
2023-04-08T07:13:21.987Z,99.90
2023-04-08T07:15:50.016Z,99.90
2023-04-08T07:18:18.006Z,99.90
2023-04-08T07:20:51.285Z,99.90
2023-04-08T07:23:19.233Z,99.90
2023-04-08T07:25:48.842Z,99.90
2023-04-08T07:28:16.945Z,99.90
2023-04-08T07:30:44.923Z,99.90
2023-04-08T07:33:12.951Z,99.90
2023-04-08T07:35:42.026Z,99.90
2023-04-08T07:38:11.629Z,99.90
2023-04-08T07:40:39.769Z,99.90
2023-04-08T07:43:10.013Z,99.90
2023-04-08T07:45:42.514Z,99.90
2023-04-08T07:48:10.535Z,99.90
2023-04-08T07:51:09.455Z,99.90
2023-04-08T07:53:27.731Z,99.90
2023-04-08T07:55:55.700Z,99.90
2023-04-08T07:58:25.301Z,99.90
2023-04-08T08:00:53.810Z,99.90
2023-04-08T08:03:23.013Z,99.90
2023-04-08T08:05:51.141Z,99.90
2023-04-08T08:08:19.126Z,99.90
2023-04-08T08:10:47.076Z,99.90
2023-04-08T08:13:17.180Z,99.90
2023-04-08T08:15:46.555Z,99.90
2023-04-08T08:18:14.550Z,99.90
2023-04-08T08:20:42.983Z,99.90
2023-04-08T08:23:11.066Z,99.90
2023-04-08T08:25:39.083Z,99.90
2023-04-08T08:28:07.131Z,99.90
2023-04-08T08:30:35.275Z,99.90
2023-04-08T08:33:04.730Z,99.90
2023-04-08T08:35:32.825Z,99.90
2023-04-08T08:38:01.196Z,99.90
2023-04-08T08:40:29.185Z,99.90
2023-04-08T08:42:59.096Z,99.90
2023-04-08T08:45:27.155Z,99.90
2023-04-08T08:47:55.210Z,99.90
2023-04-08T08:50:25.898Z,99.90
2023-04-08T08:52:54.232Z,99.90
2023-04-08T08:57:54.164Z,99.90
2023-04-08T09:00:34.633Z,99.90
2023-04-08T09:03:19.974Z,99.90
2023-04-08T09:05:53.905Z,99.90
2023-04-08T09:08:29.271Z,99.90
2023-04-08T09:10:57.726Z,99.90
2023-04-08T09:13:28.545Z,99.90
2023-04-08T09:16:04.931Z,99.90
2023-04-08T09:18:33.912Z,96.50
2023-04-08T09:21:04.085Z,97.90
2023-04-08T09:23:40.423Z,98.60
2023-04-08T09:26:12.831Z,93.30
2023-04-08T09:28:42.511Z,81.20
2023-04-08T09:31:22.037Z,61.10
2023-04-08T09:33:51.315Z,48.70
2023-04-08T09:36:20.909Z,40.80
2023-04-08T09:38:50.121Z,31.70
2023-04-08T09:41:20.592Z,15.30
2023-04-08T09:43:50.964Z,19.80
2023-04-08T09:46:22.134Z,32.20
2023-04-08T09:49:02.601Z,26.70
2023-04-08T09:51:37.684Z,29.90
2023-04-08T09:54:16.040Z,23.30
2023-04-08T09:56:48.964Z,36.40
2023-04-08T09:59:21.670Z,53.70
2023-04-08T10:01:54.648Z,63.10
2023-04-08T10:04:25.451Z,63.40
2023-04-08T10:06:58.938Z,62.10
2023-04-08T10:09:30.920Z,90.90
2023-04-08T10:11:59.127Z,54.60
2023-04-08T10:14:28.749Z,56.00
2023-04-08T10:17:25.820Z,55.30
2023-04-08T10:19:54.220Z,54.10
2023-04-08T10:22:51.875Z,52.70
2023-04-08T10:25:35.414Z,61.80
2023-04-08T10:28:25.662Z,64.50
2023-04-08T10:30:54.696Z,65.60
2023-04-08T10:33:25.382Z,75.00
2023-04-08T10:35:56.631Z,74.90
2023-04-08T10:38:33.477Z,79.80
2023-04-08T10:41:02.441Z,77.40
2023-04-08T10:43:34.683Z,76.70
2023-04-08T10:46:06.388Z,77.70
2023-04-08T10:48:34.619Z,78.30
2023-04-08T10:51:06.897Z,74.00
2023-04-08T10:53:37.104Z,74.80
2023-04-08T10:56:08.841Z,75.80
2023-04-08T10:58:37.502Z,74.40
2023-04-08T11:01:09.303Z,74.70
2023-04-08T11:03:38.016Z,77.80
2023-04-08T11:06:07.467Z,79.50
2023-04-08T11:08:38.509Z,79.10
2023-04-08T11:11:09.196Z,76.50
2023-04-08T11:13:44.388Z,76.90
2023-04-08T11:16:18.667Z,73.50
2023-04-08T11:18:47.923Z,77.10
2023-04-08T11:21:17.228Z,78.10
2023-04-08T11:23:51.148Z,76.90
2023-04-08T11:26:22.234Z,81.70
2023-04-08T11:28:51.581Z,85.70
2023-04-08T11:31:21.742Z,84.50
2023-04-08T11:33:55.084Z,86.20
2023-04-08T11:36:23.238Z,90.40
2023-04-08T11:38:55.505Z,90.70
2023-04-08T11:41:26.456Z,91.10
2023-04-08T11:43:58.100Z,93.40
2023-04-08T11:46:26.502Z,96.90
2023-04-08T11:49:06.359Z,99.90
2023-04-08T11:51:36.175Z,99.90
2023-04-08T11:54:07.987Z,99.90
2023-04-08T11:56:50.670Z,99.90
2023-04-08T11:59:18.961Z,99.90
2023-04-08T12:01:47.218Z,99.90
2023-04-08T12:04:15.436Z,99.90
2023-04-08T12:06:47.053Z,99.90
2023-04-08T12:09:16.735Z,99.90
2023-04-08T12:11:46.682Z,99.90
2023-04-08T12:14:14.764Z,99.90
2023-04-08T12:16:43.600Z,99.90
2023-04-08T12:19:11.620Z,99.90
2023-04-08T12:21:39.655Z,99.90
2023-04-08T12:24:07.705Z,99.90
2023-04-08T12:26:37.070Z,99.90
2023-04-08T12:29:05.066Z,99.90
2023-04-08T12:31:33.076Z,99.90
2023-04-08T12:34:01.887Z,99.90
2023-04-08T12:36:29.879Z,99.90
2023-04-08T12:38:57.871Z,99.90
2023-04-08T12:41:25.841Z,99.90
2023-04-08T12:43:55.326Z,99.90
2023-04-08T12:46:23.345Z,99.90
2023-04-08T12:49:02.843Z,99.90
2023-04-08T12:51:32.228Z,99.90
2023-04-08T12:54:01.227Z,99.90
2023-04-08T12:56:29.214Z,99.90
2023-04-08T12:58:58.611Z,99.90
2023-04-08T13:01:26.743Z,99.90
2023-04-08T13:03:54.968Z,99.90
2023-04-08T13:06:23.997Z,99.90
2023-04-08T13:08:52.229Z,99.90
2023-04-08T13:11:21.362Z,99.90
2023-04-08T13:13:49.417Z,99.90
2023-04-08T13:16:19.351Z,99.90
2023-04-08T13:18:47.519Z,99.90
2023-04-08T13:21:15.487Z,99.90
2023-04-08T13:23:43.430Z,99.90
2023-04-08T13:26:11.416Z,99.90
2023-04-08T13:28:53.792Z,99.90
2023-04-08T13:31:29.187Z,99.90
2023-04-08T13:33:58.403Z,99.90
2023-04-08T13:36:29.750Z,99.90
2023-04-08T13:38:57.799Z,99.90
2023-04-08T13:41:28.470Z,99.90
2023-04-08T13:43:56.597Z,99.90
2023-04-08T13:46:28.817Z,99.90
2023-04-08T13:48:56.818Z,99.90
2023-04-08T13:51:27.277Z,99.90
2023-04-08T13:53:55.233Z,99.90
2023-04-08T13:56:23.344Z,99.90
2023-04-08T13:58:57.108Z,99.90
2023-04-08T14:01:29.799Z,99.90
2023-04-08T14:04:00.010Z,99.90
2023-04-08T14:06:27.995Z,99.90
2023-04-08T14:08:56.071Z,99.90
2023-04-08T14:11:27.167Z,99.90
2023-04-08T14:13:55.144Z,99.90
2023-04-08T14:16:23.220Z,99.90
2023-04-08T14:18:53.191Z,99.90
2023-04-08T14:21:21.359Z,99.90
2023-04-08T14:23:49.344Z,99.90
2023-04-08T14:26:18.742Z,99.90
2023-04-08T14:28:47.554Z,99.90
2023-04-08T14:31:17.475Z,99.90
2023-04-08T14:33:46.077Z,99.90
2023-04-08T14:36:15.882Z,99.90
2023-04-08T14:38:49.948Z,99.90
2023-04-08T14:41:18.112Z,99.90
2023-04-08T14:43:48.758Z,99.90
2023-04-08T14:46:16.846Z,99.90
2023-04-08T14:48:44.901Z,99.90
2023-04-08T14:51:12.883Z,99.90
2023-04-08T14:53:44.435Z,99.90
2023-04-08T14:56:12.451Z,99.90
2023-04-08T14:58:42.479Z,99.90
2023-04-08T15:01:11.367Z,99.90
2023-04-08T15:03:39.613Z,99.90
2023-04-08T15:06:07.938Z,99.90
2023-04-08T15:08:36.452Z,99.90
2023-04-08T15:11:05.914Z,99.90
2023-04-08T15:13:35.846Z,99.90
2023-04-08T15:16:03.917Z,99.90
2023-04-08T15:18:32.228Z,99.90
2023-04-08T15:21:01.153Z,99.90
2023-04-08T15:23:29.382Z,99.90
2023-04-08T15:25:58.048Z,99.90
2023-04-08T15:28:28.233Z,99.90
2023-04-08T15:30:56.506Z,99.90
2023-04-08T15:33:24.544Z,99.90
2023-04-08T15:35:52.584Z,99.90
2023-04-08T15:38:20.591Z,99.90
2023-04-08T15:40:48.848Z,99.90
2023-04-08T15:43:17.110Z,99.90
2023-04-08T15:45:48.240Z,99.90
2023-04-08T15:48:19.077Z,99.90
2023-04-08T15:50:50.074Z,99.90
2023-04-08T15:53:18.078Z,99.90
2023-04-08T15:55:46.093Z,99.90
2023-04-08T15:58:18.125Z,99.90
2023-04-08T16:00:47.527Z,99.90
2023-04-08T16:03:17.782Z,99.90
2023-04-08T16:05:45.965Z,99.90
2023-04-08T16:08:14.037Z,99.90
2023-04-08T16:10:43.432Z,99.90
2023-04-08T16:13:11.642Z,99.90
2023-04-08T16:15:39.594Z,99.90
2023-04-08T16:18:13.372Z,99.90
2023-04-08T16:20:41.803Z,99.90
2023-04-08T16:23:09.789Z,99.90
2023-04-08T16:25:37.785Z,99.90
2023-04-08T16:28:09.267Z,99.90
2023-04-08T16:30:37.610Z,99.90
2023-04-08T16:33:06.115Z,99.90
2023-04-08T16:35:35.620Z,99.90
2023-04-08T16:38:06.474Z,99.90
2023-04-08T16:40:37.874Z,99.90
2023-04-08T16:43:07.477Z,99.90
2023-04-08T16:45:36.103Z,99.90
2023-04-08T16:48:04.515Z,99.90
2023-04-08T16:50:32.541Z,99.90
2023-04-08T16:53:07.903Z,99.90
2023-04-08T16:55:36.844Z,99.90
2023-04-08T16:58:05.261Z,99.90
2023-04-08T17:00:33.218Z,99.90
2023-04-08T17:03:01.685Z,99.90
2023-04-08T17:05:29.963Z,99.90
2023-04-08T17:08:03.098Z,99.90
2023-04-08T17:10:32.514Z,99.90
2023-04-08T17:13:00.542Z,99.90
2023-04-08T17:15:28.892Z,99.90
2023-04-08T17:17:56.880Z,99.90
2023-04-08T17:20:26.498Z,99.90
2023-04-08T17:22:54.542Z,99.90
2023-04-08T17:25:24.539Z,99.90
2023-04-08T17:27:54.199Z,99.90
2023-04-08T17:30:22.619Z,99.90
2023-04-08T17:32:50.611Z,99.90
2023-04-08T17:35:18.622Z,99.90
2023-04-08T17:37:50.185Z,99.90
2023-04-08T17:40:18.664Z,99.90
2023-04-08T17:42:49.691Z,99.90
2023-04-08T17:45:19.545Z,99.90
2023-04-08T17:47:47.900Z,99.90
2023-04-08T17:50:16.106Z,99.90
2023-04-08T17:52:46.102Z,99.90
2023-04-08T17:55:14.812Z,99.90
2023-04-08T17:57:43.508Z,99.90
2023-04-08T18:00:12.179Z,99.90
2023-04-08T18:02:44.322Z,99.90
2023-04-08T18:05:12.599Z,99.90
2023-04-08T18:07:40.609Z,99.90
2023-04-08T18:10:10.523Z,99.90
2023-04-08T18:12:38.535Z,99.90
2023-04-08T18:15:07.326Z,99.90
2023-04-08T18:17:36.131Z,99.90
2023-04-08T18:20:08.244Z,99.90
2023-04-08T18:22:45.164Z,99.90
2023-04-08T18:25:13.185Z,99.90
2023-04-08T18:27:49.270Z,99.90
2023-04-08T18:30:17.373Z,99.90
2023-04-08T18:32:48.034Z,99.90
2023-04-08T18:35:18.492Z,99.90
2023-04-08T18:37:49.061Z,99.90
2023-04-08T18:40:17.728Z,99.90
2023-04-08T18:42:47.669Z,99.90
2023-04-08T18:45:16.976Z,99.90
2023-04-08T18:47:45.133Z,99.90
2023-04-08T18:50:14.776Z,99.90
2023-04-08T18:52:45.647Z,99.90
2023-04-08T18:55:13.773Z,99.90
2023-04-08T18:57:43.597Z,99.90
2023-04-08T19:00:12.211Z,99.90
2023-04-08T19:02:40.332Z,99.90
2023-04-08T19:05:08.888Z,99.90
2023-04-08T19:07:36.911Z,99.90
2023-04-08T19:10:07.345Z,99.90
2023-04-08T19:12:35.340Z,99.90
2023-04-08T19:15:04.356Z,99.90
2023-04-08T19:17:32.379Z,99.90
2023-04-08T19:20:00.794Z,99.90
2023-04-08T19:22:29.074Z,99.90
2023-04-08T19:25:00.753Z,99.90
2023-04-08T19:27:35.989Z,99.90
2023-04-08T19:30:07.452Z,99.90
2023-04-08T19:32:45.759Z,99.90
2023-04-08T19:35:17.099Z,99.90
2023-04-08T19:37:52.803Z,99.90
2023-04-08T19:40:35.882Z,99.90
2023-04-08T19:43:06.323Z,99.90
2023-04-08T19:45:38.814Z,99.90
2023-04-08T19:48:12.477Z,99.90
2023-04-08T19:50:44.602Z,99.90
2023-04-08T19:53:20.828Z,99.90
2023-04-08T19:55:48.960Z,99.90
2023-04-08T19:58:18.645Z,99.90
2023-04-08T20:00:46.662Z,99.90
2023-04-08T20:03:17.971Z,99.90
2023-04-08T20:05:48.821Z,99.90
2023-04-08T20:08:16.856Z,99.90
2023-04-08T20:10:46.398Z,99.90
2023-04-08T20:13:17.772Z,99.90
2023-04-08T20:15:49.588Z,99.90
2023-04-08T20:18:17.794Z,99.90
2023-04-08T20:20:46.868Z,99.90
2023-04-08T20:23:17.171Z,99.90
2023-04-08T20:25:47.876Z,99.90
2023-04-08T20:28:15.878Z,99.90
2023-04-08T20:30:48.455Z,99.90
2023-04-08T20:33:16.572Z,99.90
2023-04-08T20:35:46.787Z,99.90
2023-04-08T20:38:14.923Z,99.90
2023-04-08T20:40:44.062Z,99.90
2023-04-08T20:43:12.430Z,99.90
2023-04-08T20:45:40.482Z,99.90
2023-04-08T20:48:10.248Z,99.90
2023-04-08T20:50:38.634Z,99.90
2023-04-08T20:53:07.276Z,99.90
2023-04-08T20:55:35.281Z,99.90
2023-04-08T20:58:05.716Z,99.90
2023-04-08T21:00:33.785Z,99.90
2023-04-08T21:03:01.908Z,99.90
2023-04-08T21:05:31.315Z,99.90
2023-04-08T21:08:00.239Z,99.90
2023-04-08T21:10:28.257Z,99.90
2023-04-08T21:12:56.213Z,99.90
2023-04-08T21:15:26.975Z,99.90
2023-04-08T21:17:55.007Z,99.90
2023-04-08T21:20:23.031Z,99.90
2023-04-08T21:22:53.828Z,99.90
2023-04-08T21:25:21.897Z,99.90
2023-04-08T21:27:49.932Z,99.90
2023-04-08T21:30:19.269Z,99.90
2023-04-08T21:32:47.617Z,99.90
2023-04-08T21:35:16.099Z,99.90
2023-04-08T21:37:44.091Z,99.90
2023-04-08T21:40:14.582Z,99.90
2023-04-08T21:42:42.964Z,99.90
2023-04-08T21:45:12.064Z,99.90
2023-04-08T21:47:40.100Z,99.90
2023-04-08T21:50:09.162Z,99.90
2023-04-08T21:52:37.339Z,99.90
2023-04-08T21:55:06.514Z,99.90
2023-04-08T21:57:36.937Z,99.90
2023-04-08T22:00:08.588Z,99.90
2023-04-08T22:02:40.983Z,99.90
2023-04-08T22:05:10.050Z,99.90
2023-04-08T22:07:38.113Z,99.90
2023-04-08T22:10:11.086Z,99.90
2023-04-08T22:12:40.522Z,99.90
2023-04-08T22:15:09.848Z,99.90
2023-04-08T22:17:37.865Z,99.90
2023-04-08T22:20:06.728Z,99.90
2023-04-08T22:22:34.710Z,99.90
2023-04-08T22:25:08.219Z,99.90
2023-04-08T22:27:36.497Z,99.90
2023-04-08T22:30:07.135Z,99.90
2023-04-08T22:32:35.269Z,99.90
2023-04-08T22:35:07.496Z,99.90
2023-04-08T22:37:36.706Z,99.90
2023-04-08T22:40:05.192Z,99.90
2023-04-08T22:42:33.272Z,99.90
2023-04-08T22:45:01.913Z,99.90
2023-04-08T22:47:31.290Z,99.90
2023-04-08T22:49:59.261Z,99.90
2023-04-08T22:52:27.218Z,99.90
2023-04-08T22:54:55.459Z,99.90
2023-04-08T22:57:23.448Z,99.90
2023-04-08T22:59:51.459Z,99.90
2023-04-08T23:02:19.501Z,99.90
2023-04-08T23:04:55.982Z,99.90
2023-04-08T23:07:24.358Z,99.90
2023-04-08T23:09:52.339Z,99.90
2023-04-08T23:12:20.562Z,99.90
2023-04-08T23:14:50.826Z,99.90
2023-04-08T23:17:18.809Z,99.90
2023-04-08T23:19:48.134Z,99.90
2023-04-08T23:22:16.128Z,99.90
2023-04-08T23:24:44.102Z,99.90
2023-04-08T23:27:12.209Z,99.90
2023-04-08T23:29:40.677Z,99.90
2023-04-08T23:32:08.661Z,99.90
2023-04-08T23:34:37.647Z,99.90
2023-04-08T23:37:06.982Z,99.90
2023-04-08T23:39:34.981Z,99.90
2023-04-08T23:42:02.972Z,99.90
2023-04-08T23:44:33.661Z,99.90
2023-04-08T23:47:01.643Z,99.90
2023-04-08T23:49:29.965Z,99.90
2023-04-08T23:51:57.933Z,99.90
2023-04-08T23:54:30.384Z,99.90
2023-04-08T23:56:58.329Z,99.90
2023-04-08T23:59:26.338Z,99.90
